sensor_id;sensor_type;location;lat;lon;timestamp;P1;durP1;ratioP1;P2;durP2;ratioP2
33780;SDS011;20097;50.832;19.100;2023-02-01T00:03:30;4.20;;;3.22;;
33780;SDS011;20097;50.832;19.100;2023-02-01T00:08:34;5.35;;;3.80;;
33780;SDS011;20097;50.832;19.100;2023-02-01T00:13:41;7.22;;;4.40;;
33780;SDS011;20097;50.832;19.100;2023-02-01T00:18:46;4.30;;;3.35;;
33780;SDS011;20097;50.832;19.100;2023-02-01T00:23:54;4.90;;;3.40;;
33780;SDS011;20097;50.832;19.100;2023-02-01T00:29:00;4.43;;;3.30;;
33780;SDS011;20097;50.832;19.100;2023-02-01T00:34:08;7.43;;;3.35;;
33780;SDS011;20097;50.832;19.100;2023-02-01T00:39:15;6.05;;;3.13;;
33780;SDS011;20097;50.832;19.100;2023-02-01T00:44:21;4.75;;;2.65;;
33780;SDS011;20097;50.832;19.100;2023-02-01T00:49:26;9.48;;;2.30;;
33780;SDS011;20097;50.832;19.100;2023-02-01T00:54:31;5.63;;;2.45;;
33780;SDS011;20097;50.832;19.100;2023-02-01T00:59:38;5.75;;;2.75;;
33780;SDS011;20097;50.832;19.100;2023-02-01T01:04:43;3.28;;;2.10;;
33780;SDS011;20097;50.832;19.100;2023-02-01T01:09:48;5.60;;;1.90;;
33780;SDS011;20097;50.832;19.100;2023-02-01T01:14:54;7.18;;;1.98;;
33780;SDS011;20097;50.832;19.100;2023-02-01T01:19:58;6.78;;;2.58;;
33780;SDS011;20097;50.832;19.100;2023-02-01T01:35:15;11.40;;;2.15;;
33780;SDS011;20097;50.832;19.100;2023-02-01T01:40:20;7.07;;;1.90;;
33780;SDS011;20097;50.832;19.100;2023-02-01T01:45:27;7.47;;;1.77;;
33780;SDS011;20097;50.832;19.100;2023-02-01T01:50:35;5.93;;;2.13;;
33780;SDS011;20097;50.832;19.100;2023-02-01T01:55:46;9.93;;;2.53;;
33780;SDS011;20097;50.832;19.100;2023-02-01T02:00:57;13.23;;;2.30;;
33780;SDS011;20097;50.832;19.100;2023-02-01T02:06:02;9.30;;;1.90;;
33780;SDS011;20097;50.832;19.100;2023-02-01T02:11:11;6.13;;;1.98;;
33780;SDS011;20097;50.832;19.100;2023-02-01T02:16:26;6.80;;;1.70;;
33780;SDS011;20097;50.832;19.100;2023-02-01T02:22:21;10.23;;;2.15;;
33780;SDS011;20097;50.832;19.100;2023-02-01T02:28:07;9.70;;;1.73;;
33780;SDS011;20097;50.832;19.100;2023-02-01T02:39:10;7.25;;;1.95;;
33780;SDS011;20097;50.832;19.100;2023-02-01T02:44:28;6.45;;;1.95;;
33780;SDS011;20097;50.832;19.100;2023-02-01T02:50:03;8.73;;;2.08;;
33780;SDS011;20097;50.832;19.100;2023-02-01T02:55:33;4.75;;;1.50;;
33780;SDS011;20097;50.832;19.100;2023-02-01T03:00:40;6.90;;;1.85;;
33780;SDS011;20097;50.832;19.100;2023-02-01T03:06:09;5.90;;;2.55;;
33780;SDS011;20097;50.832;19.100;2023-02-01T03:11:20;8.68;;;2.50;;
33780;SDS011;20097;50.832;19.100;2023-02-01T03:16:25;7.43;;;2.28;;
33780;SDS011;20097;50.832;19.100;2023-02-01T03:21:37;10.30;;;2.55;;
33780;SDS011;20097;50.832;19.100;2023-02-01T03:26:53;9.10;;;2.30;;
33780;SDS011;20097;50.832;19.100;2023-02-01T03:32:01;8.55;;;2.80;;
33780;SDS011;20097;50.832;19.100;2023-02-01T03:37:08;10.93;;;1.98;;
33780;SDS011;20097;50.832;19.100;2023-02-01T03:42:17;7.20;;;2.00;;
33780;SDS011;20097;50.832;19.100;2023-02-01T03:47:29;11.35;;;2.00;;
33780;SDS011;20097;50.832;19.100;2023-02-01T03:52:41;6.60;;;2.28;;
33780;SDS011;20097;50.832;19.100;2023-02-01T03:57:51;10.07;;;2.20;;
33780;SDS011;20097;50.832;19.100;2023-02-01T04:03:13;6.88;;;2.03;;
33780;SDS011;20097;50.832;19.100;2023-02-01T04:08:19;6.60;;;2.00;;
33780;SDS011;20097;50.832;19.100;2023-02-01T04:13:24;11.23;;;2.50;;
33780;SDS011;20097;50.832;19.100;2023-02-01T04:18:28;6.72;;;2.15;;
33780;SDS011;20097;50.832;19.100;2023-02-01T04:23:34;6.90;;;2.10;;
33780;SDS011;20097;50.832;19.100;2023-02-01T04:28:39;12.02;;;3.35;;
33780;SDS011;20097;50.832;19.100;2023-02-01T04:33:43;11.32;;;1.98;;
33780;SDS011;20097;50.832;19.100;2023-02-01T04:38:49;5.55;;;2.08;;
33780;SDS011;20097;50.832;19.100;2023-02-01T04:43:54;8.45;;;2.42;;
33780;SDS011;20097;50.832;19.100;2023-02-01T04:48:59;7.28;;;2.83;;
33780;SDS011;20097;50.832;19.100;2023-02-01T04:54:05;9.90;;;2.05;;
33780;SDS011;20097;50.832;19.100;2023-02-01T04:59:10;13.80;;;2.97;;
33780;SDS011;20097;50.832;19.100;2023-02-01T05:04:15;10.40;;;2.78;;
33780;SDS011;20097;50.832;19.100;2023-02-01T05:09:22;8.88;;;2.13;;
33780;SDS011;20097;50.832;19.100;2023-02-01T05:14:27;10.70;;;2.08;;
33780;SDS011;20097;50.832;19.100;2023-02-01T05:19:31;6.82;;;2.03;;
33780;SDS011;20097;50.832;19.100;2023-02-01T05:24:37;5.68;;;1.92;;
33780;SDS011;20097;50.832;19.100;2023-02-01T05:29:42;12.35;;;2.20;;
33780;SDS011;20097;50.832;19.100;2023-02-01T05:34:46;16.67;;;3.42;;
33780;SDS011;20097;50.832;19.100;2023-02-01T05:44:57;14.70;;;3.85;;
33780;SDS011;20097;50.832;19.100;2023-02-01T05:50:01;4.28;;;2.38;;
33780;SDS011;20097;50.832;19.100;2023-02-01T05:55:08;13.77;;;3.05;;
33780;SDS011;20097;50.832;19.100;2023-02-01T06:00:13;11.95;;;2.95;;
33780;SDS011;20097;50.832;19.100;2023-02-01T06:05:18;11.60;;;3.40;;
33780;SDS011;20097;50.832;19.100;2023-02-01T06:10:24;12.15;;;2.85;;
33780;SDS011;20097;50.832;19.100;2023-02-01T06:15:28;8.27;;;3.50;;
33780;SDS011;20097;50.832;19.100;2023-02-01T06:20:34;9.55;;;3.03;;
33780;SDS011;20097;50.832;19.100;2023-02-01T06:25:40;9.30;;;2.13;;
33780;SDS011;20097;50.832;19.100;2023-02-01T06:30:44;13.48;;;3.35;;
33780;SDS011;20097;50.832;19.100;2023-02-01T06:35:56;14.00;;;3.42;;
33780;SDS011;20097;50.832;19.100;2023-02-01T06:41:03;13.52;;;3.65;;
33780;SDS011;20097;50.832;19.100;2023-02-01T06:46:09;10.10;;;3.42;;
33780;SDS011;20097;50.832;19.100;2023-02-01T06:51:26;9.73;;;2.22;;
33780;SDS011;20097;50.832;19.100;2023-02-01T06:56:33;9.27;;;2.50;;
33780;SDS011;20097;50.832;19.100;2023-02-01T07:01:37;13.48;;;3.33;;
33780;SDS011;20097;50.832;19.100;2023-02-01T07:11:47;16.75;;;3.47;;
33780;SDS011;20097;50.832;19.100;2023-02-01T07:16:52;11.13;;;3.58;;
33780;SDS011;20097;50.832;19.100;2023-02-01T07:21:57;14.50;;;3.47;;
33780;SDS011;20097;50.832;19.100;2023-02-01T07:27:03;14.52;;;4.00;;
33780;SDS011;20097;50.832;19.100;2023-02-01T07:32:08;20.27;;;4.97;;
33780;SDS011;20097;50.832;19.100;2023-02-01T07:42:18;15.52;;;4.00;;
33780;SDS011;20097;50.832;19.100;2023-02-01T07:47:23;10.38;;;4.28;;
33780;SDS011;20097;50.832;19.100;2023-02-01T07:52:27;13.40;;;3.65;;
33780;SDS011;20097;50.832;19.100;2023-02-01T08:07:42;7.80;;;3.20;;
33780;SDS011;20097;50.832;19.100;2023-02-01T08:12:48;10.48;;;4.20;;
33780;SDS011;20097;50.832;19.100;2023-02-01T08:17:54;11.15;;;2.95;;
33780;SDS011;20097;50.832;19.100;2023-02-01T08:23:00;11.75;;;3.55;;
33780;SDS011;20097;50.832;19.100;2023-02-01T08:28:07;11.45;;;3.70;;
33780;SDS011;20097;50.832;19.100;2023-02-01T08:33:12;8.93;;;3.38;;
33780;SDS011;20097;50.832;19.100;2023-02-01T08:38:16;11.02;;;3.65;;
33780;SDS011;20097;50.832;19.100;2023-02-01T08:48:27;14.00;;;3.78;;
33780;SDS011;20097;50.832;19.100;2023-02-01T08:53:31;10.80;;;4.10;;
33780;SDS011;20097;50.832;19.100;2023-02-01T08:58:37;11.90;;;4.43;;
33780;SDS011;20097;50.832;19.100;2023-02-01T09:03:42;16.60;;;6.20;;
33780;SDS011;20097;50.832;19.100;2023-02-01T09:08:47;16.25;;;5.00;;
33780;SDS011;20097;50.832;19.100;2023-02-01T09:13:52;10.48;;;5.05;;
33780;SDS011;20097;50.832;19.100;2023-02-01T09:18:56;22.98;;;5.85;;
33780;SDS011;20097;50.832;19.100;2023-02-01T09:24:21;17.33;;;5.32;;
33780;SDS011;20097;50.832;19.100;2023-02-01T09:29:27;11.18;;;4.88;;
33780;SDS011;20097;50.832;19.100;2023-02-01T09:34:32;21.33;;;5.78;;
33780;SDS011;20097;50.832;19.100;2023-02-01T09:39:37;22.42;;;5.28;;
33780;SDS011;20097;50.832;19.100;2023-02-01T09:44:49;13.55;;;5.53;;
33780;SDS011;20097;50.832;19.100;2023-02-01T09:50:22;15.30;;;5.78;;
33780;SDS011;20097;50.832;19.100;2023-02-01T09:55:38;12.85;;;5.82;;
33780;SDS011;20097;50.832;19.100;2023-02-01T10:00:50;16.85;;;5.80;;
33780;SDS011;20097;50.832;19.100;2023-02-01T10:06:01;13.75;;;5.55;;
33780;SDS011;20097;50.832;19.100;2023-02-01T10:11:32;9.77;;;3.97;;
33780;SDS011;20097;50.832;19.100;2023-02-01T10:16:55;13.88;;;4.22;;
33780;SDS011;20097;50.832;19.100;2023-02-01T10:22:05;8.57;;;3.30;;
33780;SDS011;20097;50.832;19.100;2023-02-01T10:27:14;11.23;;;4.05;;
33780;SDS011;20097;50.832;19.100;2023-02-01T10:32:28;10.45;;;4.43;;
33780;SDS011;20097;50.832;19.100;2023-02-01T10:37:35;13.52;;;4.55;;
33780;SDS011;20097;50.832;19.100;2023-02-01T10:47:47;13.27;;;4.20;;
33780;SDS011;20097;50.832;19.100;2023-02-01T10:52:54;8.95;;;4.07;;
33780;SDS011;20097;50.832;19.100;2023-02-01T10:58:07;7.65;;;3.63;;
33780;SDS011;20097;50.832;19.100;2023-02-01T11:03:22;9.20;;;3.55;;
33780;SDS011;20097;50.832;19.100;2023-02-01T11:08:42;14.38;;;3.63;;
33780;SDS011;20097;50.832;19.100;2023-02-01T11:13:54;12.23;;;3.47;;
33780;SDS011;20097;50.832;19.100;2023-02-01T11:19:02;14.65;;;4.15;;
33780;SDS011;20097;50.832;19.100;2023-02-01T11:24:11;11.27;;;3.75;;
33780;SDS011;20097;50.832;19.100;2023-02-01T11:29:27;11.02;;;4.13;;
33780;SDS011;20097;50.832;19.100;2023-02-01T11:34:38;14.63;;;4.20;;
33780;SDS011;20097;50.832;19.100;2023-02-01T11:39:53;9.45;;;4.50;;
33780;SDS011;20097;50.832;19.100;2023-02-01T11:45:19;10.25;;;4.72;;
33780;SDS011;20097;50.832;19.100;2023-02-01T11:50:35;8.57;;;3.80;;
33780;SDS011;20097;50.832;19.100;2023-02-01T11:56:00;11.48;;;4.32;;
33780;SDS011;20097;50.832;19.100;2023-02-01T12:01:19;11.65;;;5.60;;
33780;SDS011;20097;50.832;19.100;2023-02-01T12:06:42;11.20;;;4.90;;
33780;SDS011;20097;50.832;19.100;2023-02-01T12:11:57;8.63;;;3.75;;
33780;SDS011;20097;50.832;19.100;2023-02-01T12:17:16;9.95;;;4.05;;
33780;SDS011;20097;50.832;19.100;2023-02-01T12:22:49;15.15;;;5.45;;
33780;SDS011;20097;50.832;19.100;2023-02-01T12:28:20;11.88;;;4.40;;
33780;SDS011;20097;50.832;19.100;2023-02-01T12:33:51;11.88;;;4.57;;
33780;SDS011;20097;50.832;19.100;2023-02-01T12:39:24;7.95;;;4.65;;
33780;SDS011;20097;50.832;19.100;2023-02-01T12:44:37;11.57;;;4.55;;
33780;SDS011;20097;50.832;19.100;2023-02-01T12:49:48;15.07;;;5.72;;
33780;SDS011;20097;50.832;19.100;2023-02-01T12:55:03;12.57;;;5.25;;
33780;SDS011;20097;50.832;19.100;2023-02-01T13:00:27;10.50;;;5.43;;
33780;SDS011;20097;50.832;19.100;2023-02-01T13:05:43;13.95;;;5.13;;
33780;SDS011;20097;50.832;19.100;2023-02-01T13:10:59;9.63;;;4.77;;
33780;SDS011;20097;50.832;19.100;2023-02-01T13:16:12;15.52;;;5.80;;
33780;SDS011;20097;50.832;19.100;2023-02-01T13:21:21;8.38;;;4.20;;
33780;SDS011;20097;50.832;19.100;2023-02-01T13:26:32;9.20;;;4.10;;
33780;SDS011;20097;50.832;19.100;2023-02-01T13:31:45;10.23;;;5.20;;
33780;SDS011;20097;50.832;19.100;2023-02-01T13:37:18;15.02;;;5.63;;
33780;SDS011;20097;50.832;19.100;2023-02-01T13:42:42;11.18;;;4.85;;
33780;SDS011;20097;50.832;19.100;2023-02-01T13:47:53;11.98;;;4.50;;
33780;SDS011;20097;50.832;19.100;2023-02-01T13:53:03;11.60;;;5.00;;
33780;SDS011;20097;50.832;19.100;2023-02-01T13:58:28;11.80;;;5.50;;
33780;SDS011;20097;50.832;19.100;2023-02-01T14:03:43;11.05;;;6.47;;
33780;SDS011;20097;50.832;19.100;2023-02-01T14:09:12;9.95;;;6.30;;
33780;SDS011;20097;50.832;19.100;2023-02-01T14:14:39;7.97;;;5.07;;
33780;SDS011;20097;50.832;19.100;2023-02-01T14:19:44;9.63;;;5.25;;
33780;SDS011;20097;50.832;19.100;2023-02-01T14:24:49;8.48;;;5.63;;
33780;SDS011;20097;50.832;19.100;2023-02-01T14:29:58;11.00;;;6.93;;
33780;SDS011;20097;50.832;19.100;2023-02-01T14:35:06;11.40;;;6.75;;
33780;SDS011;20097;50.832;19.100;2023-02-01T14:40:23;15.30;;;8.20;;
33780;SDS011;20097;50.832;19.100;2023-02-01T14:45:48;12.88;;;6.68;;
33780;SDS011;20097;50.832;19.100;2023-02-01T14:50:54;14.48;;;5.63;;
33780;SDS011;20097;50.832;19.100;2023-02-01T14:56:05;7.65;;;4.18;;
33780;SDS011;20097;50.832;19.100;2023-02-01T15:01:18;5.40;;;4.13;;
33780;SDS011;20097;50.832;19.100;2023-02-01T15:06:27;5.35;;;3.22;;
33780;SDS011;20097;50.832;19.100;2023-02-01T15:11:53;4.40;;;3.10;;
33780;SDS011;20097;50.832;19.100;2023-02-01T15:17:01;7.00;;;3.00;;
33780;SDS011;20097;50.832;19.100;2023-02-01T15:22:20;8.18;;;3.90;;
33780;SDS011;20097;50.832;19.100;2023-02-01T15:27:25;6.95;;;4.35;;
33780;SDS011;20097;50.832;19.100;2023-02-01T15:32:35;8.45;;;4.45;;
33780;SDS011;20097;50.832;19.100;2023-02-01T15:37:41;8.45;;;3.80;;
33780;SDS011;20097;50.832;19.100;2023-02-01T15:42:49;12.15;;;5.43;;
33780;SDS011;20097;50.832;19.100;2023-02-01T15:47:59;12.32;;;5.05;;
33780;SDS011;20097;50.832;19.100;2023-02-01T15:53:04;10.02;;;5.63;;
33780;SDS011;20097;50.832;19.100;2023-02-01T15:58:13;10.50;;;6.22;;
33780;SDS011;20097;50.832;19.100;2023-02-01T16:03:27;15.52;;;8.00;;
33780;SDS011;20097;50.832;19.100;2023-02-01T16:08:48;10.85;;;5.20;;
33780;SDS011;20097;50.832;19.100;2023-02-01T16:13:54;12.27;;;5.60;;
33780;SDS011;20097;50.832;19.100;2023-02-01T16:19:00;14.77;;;5.25;;
33780;SDS011;20097;50.832;19.100;2023-02-01T16:24:04;8.75;;;4.57;;
33780;SDS011;20097;50.832;19.100;2023-02-01T16:29:09;11.48;;;5.38;;
33780;SDS011;20097;50.832;19.100;2023-02-01T16:34:15;9.63;;;4.75;;
33780;SDS011;20097;50.832;19.100;2023-02-01T16:39:21;14.45;;;4.75;;
33780;SDS011;20097;50.832;19.100;2023-02-01T16:44:35;10.23;;;4.95;;
33780;SDS011;20097;50.832;19.100;2023-02-01T16:49:41;12.43;;;6.03;;
33780;SDS011;20097;50.832;19.100;2023-02-01T16:54:51;8.90;;;4.70;;
33780;SDS011;20097;50.832;19.100;2023-02-01T16:59:56;12.23;;;5.43;;
33780;SDS011;20097;50.832;19.100;2023-02-01T17:05:17;9.85;;;4.95;;
33780;SDS011;20097;50.832;19.100;2023-02-01T17:10:22;9.90;;;5.10;;
33780;SDS011;20097;50.832;19.100;2023-02-01T17:15:36;8.45;;;4.28;;
33780;SDS011;20097;50.832;19.100;2023-02-01T17:20:43;10.07;;;4.97;;
33780;SDS011;20097;50.832;19.100;2023-02-01T17:25:50;10.20;;;4.55;;
33780;SDS011;20097;50.832;19.100;2023-02-01T17:30:54;14.40;;;6.03;;
33780;SDS011;20097;50.832;19.100;2023-02-01T17:36:01;11.93;;;5.57;;
33780;SDS011;20097;50.832;19.100;2023-02-01T17:41:09;17.42;;;5.25;;
33780;SDS011;20097;50.832;19.100;2023-02-01T17:46:15;21.50;;;7.28;;
33780;SDS011;20097;50.832;19.100;2023-02-01T17:51:24;10.63;;;5.32;;
33780;SDS011;20097;50.832;19.100;2023-02-01T17:56:30;16.80;;;5.95;;
33780;SDS011;20097;50.832;19.100;2023-02-01T18:01:35;10.45;;;5.78;;
33780;SDS011;20097;50.832;19.100;2023-02-01T18:06:41;12.95;;;5.80;;
33780;SDS011;20097;50.832;19.100;2023-02-01T18:11:46;11.68;;;4.78;;
33780;SDS011;20097;50.832;19.100;2023-02-01T18:16:52;11.38;;;5.25;;
33780;SDS011;20097;50.832;19.100;2023-02-01T18:21:57;8.57;;;5.15;;
33780;SDS011;20097;50.832;19.100;2023-02-01T18:27:02;11.38;;;4.85;;
33780;SDS011;20097;50.832;19.100;2023-02-01T18:32:07;14.52;;;5.68;;
33780;SDS011;20097;50.832;19.100;2023-02-01T18:37:15;11.70;;;5.70;;
33780;SDS011;20097;50.832;19.100;2023-02-01T18:42:21;12.50;;;6.32;;
33780;SDS011;20097;50.832;19.100;2023-02-01T18:47:25;18.67;;;5.85;;
33780;SDS011;20097;50.832;19.100;2023-02-01T18:52:31;15.38;;;6.93;;
33780;SDS011;20097;50.832;19.100;2023-02-01T18:57:36;15.70;;;6.68;;
33780;SDS011;20097;50.832;19.100;2023-02-01T19:02:45;17.75;;;7.28;;
33780;SDS011;20097;50.832;19.100;2023-02-01T19:07:51;16.40;;;6.82;;
33780;SDS011;20097;50.832;19.100;2023-02-01T19:12:56;13.10;;;6.60;;
33780;SDS011;20097;50.832;19.100;2023-02-01T19:18:01;17.83;;;8.88;;
33780;SDS011;20097;50.832;19.100;2023-02-01T19:23:07;13.82;;;9.10;;
33780;SDS011;20097;50.832;19.100;2023-02-01T19:28:11;16.52;;;7.32;;
33780;SDS011;20097;50.832;19.100;2023-02-01T19:33:16;18.55;;;7.53;;
33780;SDS011;20097;50.832;19.100;2023-02-01T19:38:22;16.88;;;8.20;;
33780;SDS011;20097;50.832;19.100;2023-02-01T19:43:26;11.48;;;6.45;;
33780;SDS011;20097;50.832;19.100;2023-02-01T19:48:31;11.60;;;6.65;;
33780;SDS011;20097;50.832;19.100;2023-02-01T19:53:37;20.92;;;9.52;;
33780;SDS011;20097;50.832;19.100;2023-02-01T19:58:41;18.02;;;9.70;;
33780;SDS011;20097;50.832;19.100;2023-02-01T20:03:46;20.70;;;8.95;;
33780;SDS011;20097;50.832;19.100;2023-02-01T20:08:52;16.45;;;9.00;;
33780;SDS011;20097;50.832;19.100;2023-02-01T20:13:57;17.58;;;9.30;;
33780;SDS011;20097;50.832;19.100;2023-02-01T20:19:05;21.50;;;9.90;;
33780;SDS011;20097;50.832;19.100;2023-02-01T20:24:15;19.35;;;9.90;;
33780;SDS011;20097;50.832;19.100;2023-02-01T20:29:21;21.45;;;8.43;;
33780;SDS011;20097;50.832;19.100;2023-02-01T20:34:29;19.55;;;9.65;;
33780;SDS011;20097;50.832;19.100;2023-02-01T20:39:38;16.02;;;7.85;;
33780;SDS011;20097;50.832;19.100;2023-02-01T20:44:44;20.35;;;8.88;;
33780;SDS011;20097;50.832;19.100;2023-02-01T20:49:50;16.23;;;9.07;;
33780;SDS011;20097;50.832;19.100;2023-02-01T20:54:59;15.52;;;8.00;;
33780;SDS011;20097;50.832;19.100;2023-02-01T21:00:06;16.00;;;8.13;;
33780;SDS011;20097;50.832;19.100;2023-02-01T21:05:12;15.75;;;8.48;;
33780;SDS011;20097;50.832;19.100;2023-02-01T21:10:18;24.92;;;9.77;;
33780;SDS011;20097;50.832;19.100;2023-02-01T21:15:23;14.80;;;8.45;;
33780;SDS011;20097;50.832;19.100;2023-02-01T21:20:28;19.55;;;8.63;;
33780;SDS011;20097;50.832;19.100;2023-02-01T21:25:34;19.23;;;7.50;;
33780;SDS011;20097;50.832;19.100;2023-02-01T21:30:42;13.10;;;7.32;;
33780;SDS011;20097;50.832;19.100;2023-02-01T21:35:48;12.13;;;6.47;;
33780;SDS011;20097;50.832;19.100;2023-02-01T21:40:55;14.88;;;7.20;;
33780;SDS011;20097;50.832;19.100;2023-02-01T21:46:20;17.58;;;6.57;;
33780;SDS011;20097;50.832;19.100;2023-02-01T21:51:30;18.67;;;7.68;;
33780;SDS011;20097;50.832;19.100;2023-02-01T21:56:38;12.68;;;6.88;;
33780;SDS011;20097;50.832;19.100;2023-02-01T22:01:45;12.73;;;6.85;;
33780;SDS011;20097;50.832;19.100;2023-02-01T22:06:49;15.05;;;7.40;;
33780;SDS011;20097;50.832;19.100;2023-02-01T22:11:55;16.88;;;8.10;;
33780;SDS011;20097;50.832;19.100;2023-02-01T22:17:00;12.93;;;6.75;;
33780;SDS011;20097;50.832;19.100;2023-02-01T22:22:05;10.18;;;7.03;;
33780;SDS011;20097;50.832;19.100;2023-02-01T22:27:11;13.88;;;7.38;;
33780;SDS011;20097;50.832;19.100;2023-02-01T22:32:16;12.13;;;7.38;;
33780;SDS011;20097;50.832;19.100;2023-02-01T22:37:20;12.50;;;5.65;;
33780;SDS011;20097;50.832;19.100;2023-02-01T22:42:26;9.90;;;5.72;;
33780;SDS011;20097;50.832;19.100;2023-02-01T22:47:31;10.52;;;4.47;;
33780;SDS011;20097;50.832;19.100;2023-02-01T22:57:42;7.23;;;3.50;;
33780;SDS011;20097;50.832;19.100;2023-02-01T23:02:46;4.80;;;2.85;;
33780;SDS011;20097;50.832;19.100;2023-02-01T23:07:51;4.47;;;2.65;;
33780;SDS011;20097;50.832;19.100;2023-02-01T23:23:06;5.28;;;1.90;;
33780;SDS011;20097;50.832;19.100;2023-02-01T23:28:12;3.58;;;1.83;;
33780;SDS011;20097;50.832;19.100;2023-02-01T23:33:19;3.47;;;1.50;;
33780;SDS011;20097;50.832;19.100;2023-02-01T23:38:25;2.33;;;1.73;;
33780;SDS011;20097;50.832;19.100;2023-02-01T23:43:32;2.20;;;1.42;;
33780;SDS011;20097;50.832;19.100;2023-02-01T23:48:55;2.70;;;2.03;;
33780;SDS011;20097;50.832;19.100;2023-02-01T23:54:01;3.70;;;2.08;;
33780;SDS011;20097;50.832;19.100;2023-02-01T23:59:08;3.50;;;2.17;;
